Flight Track Log - Related Links

Times and Time Zones

All times are in EDT time to prevent confusion due to time zone crossing. See the N523JM flight status page for this flight to view local times or setup timezone preferences in your user account.

Time Position Orientation Groundspeed Altitude Reporting Facility
EDT Latitude Longitude Course Direction KTS MPH feet Rate Location/Type
Tue 16:36:34 31.4964 -82.9317 North 457 526 5,300  Level Jacksonville Center
Tue 16:37:34 31.5694 -82.9169 10° North 241 277 9,800 4,000 Climbing Jacksonville Center
Tue 16:38:34 31.6403 -82.9047 North 222 255 13,300 3,000 Climbing Jacksonville Center
Tue 16:39:34 31.7178 -82.9097 357° North 249 287 15,800 2,182 Climbing Jacksonville Center
Tue 16:41:00 32.0460 -82.8667 North  Level FlightAware
Tue 16:41:30 31.9000 -82.9136 359° North 347 399 19,700  Level Atlanta Center
Tue 16:42:30 32.0003 -82.9147 359° North 340 391 21,500 1,800 Climbing Atlanta Center
Tue 16:43:30 32.1047 -82.9158 359° North 357 411 23,300 1,700 Climbing Atlanta Center
Tue 16:44:30 32.2111 -82.9194 358° North 369 425 24,900 1,650 Climbing Atlanta Center
Tue 16:45:30 32.3197 -82.9206 360° North 374 430 26,600 1,550 Climbing Atlanta Center
Tue 16:46:30 32.4303 -82.9217 360° North 385 443 28,000 1,250 Climbing Atlanta Center
Tue 16:47:30 32.5492 -82.9225 360° North 385 443 29,100 1,050 Climbing Atlanta Center
Tue 16:48:30 32.6661 -82.9261 359° North 391 450 30,100 1,050 Climbing Atlanta Center
Tue 16:49:30 32.7831 -82.9269 360° North 403 464 31,200 1,050 Climbing Atlanta Center
Tue 16:50:30 32.9022 -82.9303 359° North 416 479 32,200 1,050 Climbing Atlanta Center
Tue 16:51:30 33.0192 -82.9339 359° North 421 484 33,300 1,050 Climbing Atlanta Center
Tue 16:52:30 33.1400 -82.9347 360° North 421 484 34,300 1,050 Climbing Atlanta Center
Tue 16:53:30 33.2550 -82.9383 358° North 421 484 35,400 850 Climbing Atlanta Center
Tue 16:54:30 33.3697 -82.9419 358° North 421 484 36,000 300 Climbing Atlanta Center
Tue 16:55:30 33.4908 -82.9428 360° North 423 487 36,000  Level Atlanta Center
Tue 16:56:30 33.6161 -82.9436 360° North 433 498 36,000  Level Atlanta Center
Tue 16:57:30 33.7414 -82.9447 360° North 445 512 36,000 100 Level Atlanta Center
Tue 16:58:30 33.8644 -82.9456 360° North 445 512 36,200 400 Climbing Atlanta Center
Tue 16:59:30 33.9856 -82.9489 359° North 439 505 36,800 400 Climbing Atlanta Center
Tue 17:00:30 34.1086 -82.9500 360° North 439 505 37,000 100 Climbing Atlanta Center
Tue 17:01:30 34.2172 -82.9511 360° North 439 505 37,000  Level Atlanta Center
Tue 17:02:30 34.3342 -82.9544 359° North 439 505 37,000  Level Atlanta Center
Tue 17:03:30 34.4572 -82.9581 359° North 434 499 37,000  Level Atlanta Center
Tue 17:04:30 34.5783 -82.9589 360° North 434 499 37,000  Level Atlanta Center
Tue 17:05:30 34.6975 -82.9600 360° North 429 494 37,000  Level Atlanta Center
Tue 17:06:30 34.8206 -82.9633 359° North 436 502 37,000  Level Atlanta Center
Tue 17:07:30 34.9519 -82.9719 357° North 436 502 37,000  Level Atlanta Center
Tue 17:08:30 35.0753 -82.9728 360° North 436 502 37,000  Level Atlanta Center
Tue 17:09:30 35.1961 -82.9739 360° North 441 507 37,000  Level Atlanta Center
Tue 17:10:30 35.3069 -82.9750 360° North 441 507 37,000  Level Atlanta Center
Tue 17:11:30 35.4278 -82.9786 359° North 441 507 37,000  Level Atlanta Center
Tue 17:12:30 35.5508 -82.9794 360° North 441 507 37,000  Level Atlanta Center
Tue 17:13:30 35.6803 -82.9828 359° North 436 502 37,000  Level Atlanta Center
Tue 17:14:30 35.8033 -82.9839 360° North 436 502 37,000  Level Atlanta Center
Tue 17:15:30 35.9244 -82.9875 359° North 436 502 37,000  Level Atlanta Center
Tue 17:16:30 36.0456 -82.9908 359° North 436 502 37,000  Level Atlanta Center
Tue 17:17:30 36.1664 -82.9919 360° North 436 502 37,000  Level Atlanta Center
Tue 17:18:30 36.2853 -82.9956 359° North 431 496 37,000  Level Atlanta Center
Tue 17:19:30 36.4064 -82.9967 360° North 436 502 37,000  Level Atlanta Center
Tue 17:20:04 36.4644 -82.9975 359° North 435 501 37,000  Level Indianapolis Center
Tue 17:21:06 36.5883 -83.0000 359° North 441 507 37,000  Level Indianapolis Center
Tue 17:22:08 36.7308 -82.9792 North 440 506 37,000  Level Indianapolis Center
Tue 17:23:10 36.8433 -82.9461 13° North 452 520 37,000  Level Indianapolis Center
Tue 17:24:12 36.9728 -82.9133 11° North 469 540 37,000 -145 Level Indianapolis Center
Tue 17:25:14 37.1169 -82.8533 18° North 462 532 36,700 -387 Descending Indianapolis Center
Tue 17:26:16 37.2403 -82.7894 22° Northeast 475 547 36,200 -339 Descending Indianapolis Center
Tue 17:27:18 37.3658 -82.7278 21° North 480 552 36,000 -97 Descending Indianapolis Center
Tue 17:28:20 37.4892 -82.6664 22° Northeast 478 550 36,000 -677 Level Indianapolis Center
Tue 17:29:22 37.6133 -82.6053 21° North 475 547 34,600 -1,694 Descending Indianapolis Center
Tue 17:30:24 37.7608 -82.5300 22° Northeast 486 559 32,500 -1,742 Descending Indianapolis Center
Tue 17:31:26 37.8869 -82.4678 21° North 484 557 31,000 -823 Descending Indianapolis Center
Tue 17:32:28 38.0064 -82.4072 22° Northeast 465 535 30,800 -484 Descending Indianapolis Center
Tue 17:33:30 38.1386 -82.3406 22° Northeast 472 543 30,000 -774 Descending Indianapolis Center
Tue 17:34:32 38.2647 -82.2758 22° Northeast 483 556 29,200 -484 Descending Indianapolis Center
Tue 17:35:34 38.3908 -82.2125 21° North 486 559 29,000 -145 Descending Indianapolis Center
Tue 17:36:36 38.5175 -82.1483 22° Northeast 484 557 28,900 -484 Descending Indianapolis Center
Tue 17:37:38 38.6450 -82.0831 22° Northeast 488 562 28,000 -1,161 Descending Indianapolis Center
Tue 17:38:40 38.7794 -82.0483 11° North 492 566 26,500 -1,839 Descending Indianapolis Center
Tue 17:39:42 38.9061 -82.0864 347° North 471 542 24,200 -2,419 Descending Indianapolis Center
Tue 17:40:44 39.0231 -82.1333 343° North 449 517 21,500 -2,806 Descending Indianapolis Center
Tue 17:41:46 39.1636 -82.1906 342° North 439 505 18,400 -2,613 Descending Indianapolis Center
Tue 17:42:48 39.2847 -82.2375 343° North 451 519 16,100 -2,371 Descending Indianapolis Center
Tue 17:43:50 39.3978 -82.2811 343° North 426 490 13,500 -2,579 Descending Indianapolis Center
Tue 17:44:35 39.4811 -82.3206 340° North 406 467 11,500 -2,000 Descending Indianapolis Center
Tue 17:45:05 39.5400 -82.3431 344° North 408 470 11,000 -608 Descending Indianapolis Center
Tue 17:45:54 39.6164 -82.3853 337° Northwest 405 466 10,700 -541 Descending Indianapolis Center
Tue 17:46:56 39.7019 -82.4717 322° Northwest 383 441 10,000 -339 Descending Indianapolis Center
Tue 17:47:58 39.7733 -82.5417 323° Northwest 324 373 10,000 -290 Level Indianapolis Center
Tue 17:49:00 39.8386 -82.6042 324° Northwest 287 330 9,400 -1,113 Descending Indianapolis Center
Tue 17:50:02 39.9047 -82.6692 323° Northwest 257 296 7,700 -1,645 Descending Indianapolis Center
Tue 17:51:04 39.9631 -82.7272 323° Northwest 261 300 6,000 -1,597 Descending Indianapolis Center
Tue 17:52:06 40.0217 -82.7847 323° Northwest 263 303 4,400 -1,258 Descending Indianapolis Center
Tue 17:53:08 40.0714 -82.8475 316° Northwest 257 296 3,400 -632 Descending Indianapolis Center
Tue 17:54:19 40.0817 -82.9364 279° West 167 192 3,000 -636 Descending Indianapolis Center
Tue 17:55:20 40.0803 -82.9936 268° West 138 159 2,000 -885 Descending Indianapolis Center
Tue 17:56:21 40.0781 -83.0397 266° West 128 147 1,200 -522 Descending Indianapolis Center
Tue 17:57:15 40.0761 -83.0844 267° West 142 163 1,000 -222 Descending Indianapolis Center
Tue 17:59:00 40.0798 -83.0732 67° East  Level Estimated

Login

Don't have an account? Register now (free) for customized features, flight alerts, and more!